Catalina Express — WCJ6210 — position and weather

sailwx.info

Track history (hours):
 
Tides and Currents Weather Stations Pressure Air Temp Water Temp Dewpoint Dewpoint Depression Visibility Wind Speed Wind Dir Waves Ship Positions

Catalina Express

Owner: RGWT INC, Long Beach, CA. More information available from US FCC via Universal Licensing System and Coast Guard Vessel Documentation Center.

Last reported at 2018-Aug-19 15:01 UTC. Time now 2018-Aug-19 15:18 UTC.
Position N 33°26' W 117°45'.

Length 37 m; draft 1.1 m.

Type: High speed craft. MMSI: 366943960.

Date/timePositionNaut miles runAvg speedWind from/ knotsBaromVisibWave heightAir tempDewpointWater temp
2018-Aug-19 15:01N 33°26' W 117°45'4 7.0
2018-Aug-19 14:31N 33°28' W 117°42'0 0.0
2018-Aug-19 14:01N 33°28' W 117°42'0 0.1
2018-Aug-19 13:30N 33°28' W 117°41'0 0.0
2018-Aug-19 03:10N 33°28' W 117°42'0 1.1
2018-Aug-19 03:00N 33°27' W 117°42'1224.8
2018-Aug-19 02:31N 33°24' W 117°56'1427.3
2018-Aug-19 02:01N 33°22' W 118°12'612.5
2018-Aug-19 01:30N 33°21' W 118°19'0 0.2
2018-Aug-19 01:01N 33°21' W 118°19'1326.2
2018-Aug-19 00:31N 33°23' W 118°04'1427.5
2018-Aug-19 00:00N 33°26' W 117°48'511.0
2018-Aug-18 23:31N 33°28' W 117°42'0 0.0
2018-Aug-18 23:00N 33°28' W 117°42'0 0.0
2018-Aug-18 22:31N 33°28' W 117°42'510.8
2018-Aug-18 22:01N 33°26' W 117°48'1428.0
2018-Aug-18 21:30N 33°23' W 118°04'1325.8
2018-Aug-18 21:00N 33°21' W 118°19'0 0.1
2018-Aug-18 20:30N 33°21' W 118°19'815.3
2018-Aug-18 20:00N 33°22' W 118°10'1325.8
2018-Aug-18 19:31N 33°25' W 117°55'1223.3
2018-Aug-18 19:00N 33°27' W 117°42'0 0.3
2018-Aug-18 18:30N 33°28' W 117°42'1 2.1
2018-Aug-18 18:00N 33°27' W 117°42'1527.8
2018-Aug-18 17:28N 33°24' W 118°00'1227.6
2018-Aug-18 17:01N 33°21' W 118°15'4 7.3
2018-Aug-18 16:30N 33°21' W 118°19'3 5.2
2018-Aug-18 16:01N 33°21' W 118°16'1325.9
2018-Aug-18 15:30N 33°24' W 118°01'1325.6
2018-Aug-18 15:01N 33°26' W 117°46'4 8.0
2018-Aug-18 14:30N 33°28' W 117°42'0 0.0
2018-Aug-18 14:00N 33°28' W 117°42'0 0.1
2018-Aug-18 13:30N 33°28' W 117°41'0 0.0
2018-Aug-18 03:08N 33°28' W 117°42'0 2.3
2018-Aug-18 03:00N 33°27' W 117°41'1326.2
2018-Aug-18 02:30N 33°24' W 117°57'1427.5
2018-Aug-18 02:00N 33°22' W 118°13'511.0
2018-Aug-18 01:30N 33°21' W 118°19'1 2.3
2018-Aug-18 01:00N 33°21' W 118°18'1427.2
2018-Aug-18 00:30N 33°24' W 118°02'1327.0
2018-Aug-18 00:00N 33°26' W 117°46'4 8.3
2018-Aug-17 23:30N 33°28' W 117°42'0 0.0
2018-Aug-17 23:00N 33°28' W 117°42'0 0.0
2018-Aug-17 22:30N 33°28' W 117°42'714.0
2018-Aug-17 22:00N 33°26' W 117°50'1527.3
2018-Aug-17 21:29N 33°24' W 118°07'1123.3
2018-Aug-17 21:00N 33°21' W 118°19'0 0.0
2018-Aug-17 20:27N 33°21' W 118°19'714.5
2018-Aug-17 19:57N 33°22' W 118°11'1126.3
2018-Aug-17 19:31N 33°24' W 117°57'1326.2
2018-Aug-17 19:01N 33°27' W 117°42'1 1.3
2018-Aug-17 18:30N 33°28' W 117°42'1 2.4
2018-Aug-17 18:00N 33°27' W 117°43'1327.3
2018-Aug-17 17:31N 33°24' W 117°58'1427.2
2018-Aug-17 17:00N 33°22' W 118°15'4 4.8
2018-Aug-17 16:09N 33°21' W 118°19'210.7
2018-Aug-17 15:59N 33°21' W 118°17'1326.5
2018-Aug-17 15:31N 33°23' W 118°02'1326.1
2018-Aug-17 15:01N 33°26' W 117°47'5 9.8
2018-Aug-17 14:31N 33°28' W 117°42'0 0.1
2018-Aug-17 13:30N 33°28' W 117°41'0 0.0
2018-Aug-17 02:10N 33°28' W 117°42'0 0.7
2018-Aug-17 02:00N 33°27' W 117°42'1123.0
2018-Aug-17 01:30N 33°24' W 117°55'1426.9
2018-Aug-17 01:00N 33°22' W 118°11'713.9
2018-Aug-17 00:29N 33°21' W 118°19'1 2.9
2018-Aug-17 00:00N 33°21' W 118°18'1327.0
2018-Aug-16 23:30N 33°23' W 118°02'1326.8
2018-Aug-16 23:01N 33°26' W 117°46'4 8.3
2018-Aug-16 22:30N 33°28' W 117°42'0 0.0
2018-Aug-16 22:01N 33°28' W 117°42'0 0.0
2018-Aug-16 21:30N 33°28' W 117°42'0 0.0
2018-Aug-16 21:00N 33°28' W 117°42'0 0.0
2018-Aug-16 20:30N 33°28' W 117°42'3 6.4
2018-Aug-16 20:01N 33°26' W 117°45'1427.4
2018-Aug-16 19:30N 33°23' W 118°01'1427.2
2018-Aug-16 19:00N 33°21' W 118°17'2 2.1
2018-Aug-16 18:11N 33°21' W 118°19'724.4
2018-Aug-16 17:54N 33°22' W 118°11'1026.1
2018-Aug-16 17:31N 33°24' W 117°59'1326.7
2018-Aug-16 17:00N 33°27' W 117°43'2 3.8
2018-Aug-16 16:31N 33°28' W 117°42'0 0.0
2018-Aug-16 02:14N 33°28' W 117°42'2 6.9
2018-Aug-16 02:00N 33°27' W 117°43'1326.1
2018-Aug-16 01:31N 33°24' W 117°58'1326.3
2018-Aug-16 01:01N 33°22' W 118°14'5 8.9
2018-Aug-16 00:29N 33°21' W 118°19'1 1.0
2018-Aug-16 00:00N 33°21' W 118°20'0 0.2
2018-Aug-15 23:31N 33°21' W 118°20'0 0.0
2018-Aug-15 23:01N 33°21' W 118°20'0 0.0
2018-Aug-15 22:30N 33°21' W 118°20'0 0.1
2018-Aug-15 21:58N 33°21' W 118°20'0 0.1
2018-Aug-15 21:20N 33°21' W 118°20'0 0.0
2018-Aug-15 20:57N 33°21' W 118°20'0 0.0
2018-Aug-15 20:28N 33°21' W 118°20'0 0.0
2018-Aug-15 19:52N 33°21' W 118°20'1 1.0
2018-Aug-15 19:14N 33°21' W 118°19'621.9
2018-Aug-15 18:59N 33°26' W 118°17'1226.0
2018-Aug-15 18:30N 33°38' W 118°13'816.2
2018-Aug-15 18:00N 33°46' W 118°12'0 0.0
2018-Aug-15 17:30N 33°46' W 118°12'0 0.0
2018-Aug-15 17:00N 33°46' W 118°12'0 0.0
2018-Aug-15 16:30N 33°46' W 118°12'0 0.0
2018-Aug-15 16:00N 33°46' W 118°12'0 0.0
2018-Aug-15 15:30N 33°46' W 118°12'0 0.0
2018-Aug-15 15:00N 33°46' W 118°12'0 0.0
2018-Aug-15 14:30N 33°46' W 118°12'0 0.0
2018-Aug-15 02:06N 33°46' W 118°12'0 0.0
2018-Aug-15 02:00N 33°46' W 118°12'0 0.0
2018-Aug-15 01:30N 33°46' W 118°12'2 3.6
2018-Aug-15 01:01N 33°44' W 118°11'1326.8
2018-Aug-15 00:30N 33°32' W 118°16'1121.4
2018-Aug-14 23:59N 33°21' W 118°19'0 0.0
2018-Aug-14 23:31N 33°21' W 118°19'2 4.3
2018-Aug-14 23:00N 33°19' W 118°18'3 5.8
2018-Aug-14 22:30N 33°21' W 118°20'0 0.1
2018-Aug-14 21:59N 33°21' W 118°20'0 0.0
2018-Aug-14 21:30N 33°21' W 118°20'0 0.1
2018-Aug-14 21:01N 33°21' W 118°20'0 0.1
2018-Aug-14 20:30N 33°21' W 118°20'1 1.4
2018-Aug-14 20:01N 33°21' W 118°19'4 7.9
2018-Aug-14 19:30N 33°24' W 118°18'1326.4
2018-Aug-14 19:00N 33°37' W 118°13'917.6
2018-Aug-14 18:31N 33°46' W 118°12'0 0.1
2018-Aug-14 18:01N 33°46' W 118°12'0 0.0
2018-Aug-14 17:30N 33°46' W 118°12'0 0.0
2018-Aug-14 05:40N 33°46' W 118°12'0 0.0
2018-Aug-14 05:30N 33°46' W 118°12'0 0.0
2018-Aug-14 05:00N 33°46' W 118°12'715.1
2018-Aug-14 04:31N 33°38' W 118°12'1326.6
2018-Aug-14 04:01N 33°26' W 118°17'510.7
2018-Aug-14 03:30N 33°21' W 118°19'4 8.8
2018-Aug-14 03:01N 33°25' W 118°18'1326.4
2018-Aug-14 02:30N 33°38' W 118°13'816.6
2018-Aug-14 02:00N 33°46' W 118°12'0 0.0
2018-Aug-14 01:30N 33°46' W 118°12'1 2.7
2018-Aug-14 01:01N 33°45' W 118°11'1326.1
2018-Aug-14 00:30N 33°32' W 118°14'1224.6
2018-Aug-14 00:00N 33°21' W 118°19'0 0.1
2018-Aug-13 23:30N 33°21' W 118°19'1019.6
2018-Aug-13 23:01N 33°30' W 118°17'1326.7
2018-Aug-13 22:31N 33°43' W 118°11'3 6.0
2018-Aug-13 22:00N 33°46' W 118°12'0 0.0
2018-Aug-13 21:30N 33°46' W 118°12'0 0.0
2018-Aug-13 18:13N 33°46' W 118°12'0 0.0
2018-Aug-13 18:01N 33°46' W 118°12'0 0.0
2018-Aug-13 17:30N 33°46' W 118°12'0 0.0
2018-Aug-13 17:00N 33°46' W 118°12'0 0.0
2018-Aug-13 16:30N 33°46' W 118°12'0 0.0
2018-Aug-13 16:00N 33°46' W 118°12'0 0.0
2018-Aug-13 15:30N 33°46' W 118°12'0 0.0
2018-Aug-13 15:01N 33°46' W 118°12'0 0.0
2018-Aug-13 05:09N 33°46' W 118°12'0 0.1
2018-Aug-13 05:01N 33°46' W 118°12'714.9
2018-Aug-13 04:30N 33°38' W 118°12'1326.6
2018-Aug-13 04:01N 33°26' W 118°17'510.8
2018-Aug-13 03:31N 33°21' W 118°19'2 3.4
2018-Aug-13 03:00N 33°22' W 118°19'1427.4
2018-Aug-13 02:31N 33°35' W 118°14'1120.8
2018-Aug-13 02:00N 33°46' W 118°12'0 0.1
2018-Aug-13 01:30N 33°46' W 118°12'1 1.8
2018-Aug-13 01:01N 33°45' W 118°11'1326.1
2018-Aug-13 00:31N 33°32' W 118°14'1224.7
2018-Aug-13 00:00N 33°21' W 118°19'0 0.0
2018-Aug-12 23:28N 33°21' W 118°19'1124.0
2018-Aug-12 23:00N 33°31' W 118°16'1326.8
2018-Aug-12 22:30N 33°44' W 118°11'2 4.0
2018-Aug-12 22:00N 33°46' W 118°12'0 0.0
2018-Aug-12 21:30N 33°46' W 118°12'1 2.0
2018-Aug-12 21:00N 33°45' W 118°11'1326.7
2018-Aug-12 20:31N 33°32' W 118°15'1224.3
2018-Aug-12 20:00N 33°21' W 118°19'0 0.0
2018-Aug-12 19:30N 33°21' W 118°19'5 9.9
2018-Aug-12 19:00N 33°25' W 118°18'1326.8
2018-Aug-12 18:31N 33°38' W 118°13'815.0
2018-Aug-12 18:01N 33°46' W 118°12'0 0.0
2018-Aug-12 17:30N 33°46' W 118°12'1 1.1
2018-Aug-12 17:00N 33°45' W 118°11'1325.0
2018-Aug-12 16:31N 33°33' W 118°14'1326.2
2018-Aug-12 16:00N 33°21' W 118°19'0 0.1
2018-Aug-12 15:30N 33°21' W 118°19'1120.3
2018-Aug-12 14:59N 33°31' W 118°16'1326.7
2018-Aug-12 14:30N 33°43' W 118°11'3 5.7
2018-Aug-12 14:00N 33°46' W 118°12'0 0.0
2018-Aug-12 13:30N 33°46' W 118°12'0 0.0
2018-Aug-12 13:00N 33°46' W 118°12'0 0.0
2018-Aug-12 12:30N 33°46' W 118°12'0 0.0
2018-Aug-12 05:03N 33°46' W 118°12'0 0.2
2018-Aug-12 05:00N 33°46' W 118°12'816.6
2018-Aug-12 04:30N 33°37' W 118°12'1326.3
2018-Aug-12 04:00N 33°25' W 118°18'4 8.4
2018-Aug-12 03:28N 33°21' W 118°19'5 9.5
2018-Aug-12 03:00N 33°25' W 118°18'1326.9
2018-Aug-12 02:30N 33°38' W 118°13'816.3
2018-Aug-12 02:00N 33°46' W 118°12'0 0.0
2018-Aug-12 01:30N 33°46' W 118°12'1 2.9
2018-Aug-12 01:01N 33°45' W 118°11'1325.6
2018-Aug-12 00:30N 33°32' W 118°14'1211.3
2018-Aug-11 23:26N 33°21' W 118°19'1023.6
2018-Aug-11 23:01N 33°30' W 118°15'1325.9
2018-Aug-11 22:30N 33°43' W 118°11'3 6.0
2018-Aug-11 22:00N 33°46' W 118°12'0 0.0
2018-Aug-11 21:30N 33°46' W 118°12'1 2.8
2018-Aug-11 21:01N 33°45' W 118°11'1325.0
2018-Aug-11 20:30N 33°32' W 118°13'1325.4
2018-Aug-11 20:01N 33°21' W 118°19'0 0.0
2018-Aug-11 19:30N 33°21' W 118°19'510.7
2018-Aug-11 19:00N 33°26' W 118°17'1326.1
2018-Aug-11 18:30N 33°38' W 118°13'815.1
2018-Aug-11 18:00N 33°46' W 118°12'0 0.0
2018-Aug-11 17:31N 33°46' W 118°12'1 2.2
2018-Aug-11 17:00N 33°45' W 118°11'1225.0
2018-Aug-11 16:31N 33°33' W 118°13'1325.9
2018-Aug-11 16:01N 33°21' W 118°19'0 0.1
2018-Aug-11 15:30N 33°21' W 118°19'1121.4
2018-Aug-11 15:00N 33°31' W 118°15'1326.6
2018-Aug-11 14:31N 33°44' W 118°11'2 4.6
2018-Aug-11 14:00N 33°46' W 118°12'0 0.0
2018-Aug-11 13:30N 33°46' W 118°12'0 0.0
2018-Aug-11 13:00N 33°46' W 118°12'0 0.0
2018-Aug-11 12:30N 33°46' W 118°12'0 0.0
2018-Aug-11 12:00N 33°46' W 118°12'0 0.0
2018-Aug-10 23:13N 33°46' W 118°12'0 0.0
2018-Aug-10 23:00N 33°46' W 118°12'0 0.0
2018-Aug-10 22:30N 33°46' W 118°12'0 0.0
2018-Aug-10 22:00N 33°46' W 118°12'0 0.0
2018-Aug-10 21:30N 33°46' W 118°12'1 1.5
2018-Aug-10 21:00N 33°45' W 118°11'1326.0
2018-Aug-10 20:31N 33°33' W 118°14'1325.0
2018-Aug-10 20:00N 33°21' W 118°19'0 0.0
2018-Aug-10 19:30N 33°21' W 118°19'3 6.7
2018-Aug-10 19:01N 33°24' W 118°18'1427.3
2018-Aug-10 18:31N 33°37' W 118°13'918.0
2018-Aug-10 18:01N 33°46' W 118°12'0 0.0
2018-Aug-10 17:30N 33°46' W 118°12'1 1.4
2018-Aug-10 17:00N 33°45' W 118°11'1325.8
2018-Aug-10 16:31N 33°33' W 118°14'1325.0
2018-Aug-10 16:00N 33°21' W 118°19'0 0.1
2018-Aug-10 15:30N 33°21' W 118°19'1122.3
2018-Aug-10 15:01N 33°31' W 118°15'1326.6
2018-Aug-10 14:30N 33°44' W 118°11'2 3.9
2018-Aug-10 14:01N 33°46' W 118°12'0 0.0
2018-Aug-10 13:31N 33°46' W 118°12'0 0.0
2018-Aug-10 13:00N 33°46' W 118°12'0 0.0
2018-Aug-10 12:31N 33°46' W 118°12'0 0.0
2018-Aug-10 12:01N 33°46' W 118°12'0 0.0
2018-Aug-09 18:05N 33°46' W 118°12'0 0.0
2018-Aug-09 18:00N 33°46' W 118°12'0 0.0
2018-Aug-09 17:30N 33°46' W 118°12'  
Track history (hours):
 
Tides and Currents Weather Stations Pressure Air Temp Water Temp Dewpoint Dewpoint Depression Visibility Wind Speed Wind Dir Waves Ship Positions

Catalina Express

Owner: RGWT INC, Long Beach, CA. More information available from US FCC via Universal Licensing System and Coast Guard Vessel Documentation Center.

Last reported at 2018-Aug-19 15:01 UTC. Time now 2018-Aug-19 15:18 UTC.
Position N 33°26' W 117°45'.

Length 37 m; draft 1.1 m.

Type: High speed craft. MMSI: 366943960.

Date/timePositionNaut miles runAvg speedWind from/ knotsBaromVisibWave heightAir tempDewpointWater temp
2018-Aug-19 15:01N 33°26' W 117°45'4 7.0
2018-Aug-19 14:31N 33°28' W 117°42'0 0.0
2018-Aug-19 14:01N 33°28' W 117°42'0 0.1
2018-Aug-19 13:30N 33°28' W 117°41'0 0.0
2018-Aug-19 03:10N 33°28' W 117°42'0 1.1
2018-Aug-19 03:00N 33°27' W 117°42'1224.8
2018-Aug-19 02:31N 33°24' W 117°56'1427.3
2018-Aug-19 02:01N 33°22' W 118°12'612.5
2018-Aug-19 01:30N 33°21' W 118°19'0 0.2
2018-Aug-19 01:01N 33°21' W 118°19'1326.2
2018-Aug-19 00:31N 33°23' W 118°04'1427.5
2018-Aug-19 00:00N 33°26' W 117°48'511.0
2018-Aug-18 23:31N 33°28' W 117°42'0 0.0
2018-Aug-18 23:00N 33°28' W 117°42'0 0.0
2018-Aug-18 22:31N 33°28' W 117°42'510.8
2018-Aug-18 22:01N 33°26' W 117°48'1428.0
2018-Aug-18 21:30N 33°23' W 118°04'1325.8
2018-Aug-18 21:00N 33°21' W 118°19'0 0.1
2018-Aug-18 20:30N 33°21' W 118°19'815.3
2018-Aug-18 20:00N 33°22' W 118°10'1325.8
2018-Aug-18 19:31N 33°25' W 117°55'1223.3
2018-Aug-18 19:00N 33°27' W 117°42'0 0.3
2018-Aug-18 18:30N 33°28' W 117°42'1 2.1
2018-Aug-18 18:00N 33°27' W 117°42'1527.8
2018-Aug-18 17:28N 33°24' W 118°00'1227.6
2018-Aug-18 17:01N 33°21' W 118°15'4 7.3
2018-Aug-18 16:30N 33°21' W 118°19'3 5.2
2018-Aug-18 16:01N 33°21' W 118°16'1325.9
2018-Aug-18 15:30N 33°24' W 118°01'1325.6
2018-Aug-18 15:01N 33°26' W 117°46'4 8.0
2018-Aug-18 14:30N 33°28' W 117°42'0 0.0
2018-Aug-18 14:00N 33°28' W 117°42'0 0.1
2018-Aug-18 13:30N 33°28' W 117°41'0 0.0
2018-Aug-18 03:08N 33°28' W 117°42'0 2.3
2018-Aug-18 03:00N 33°27' W 117°41'1326.2
2018-Aug-18 02:30N 33°24' W 117°57'1427.5
2018-Aug-18 02:00N 33°22' W 118°13'511.0
2018-Aug-18 01:30N 33°21' W 118°19'1 2.3
2018-Aug-18 01:00N 33°21' W 118°18'1427.2
2018-Aug-18 00:30N 33°24' W 118°02'1327.0
2018-Aug-18 00:00N 33°26' W 117°46'4 8.3
2018-Aug-17 23:30N 33°28' W 117°42'0 0.0
2018-Aug-17 23:00N 33°28' W 117°42'0 0.0
2018-Aug-17 22:30N 33°28' W 117°42'714.0
2018-Aug-17 22:00N 33°26' W 117°50'1527.3
2018-Aug-17 21:29N 33°24' W 118°07'1123.3
2018-Aug-17 21:00N 33°21' W 118°19'0 0.0
2018-Aug-17 20:27N 33°21' W 118°19'714.5
2018-Aug-17 19:57N 33°22' W 118°11'1126.3
2018-Aug-17 19:31N 33°24' W 117°57'1326.2
2018-Aug-17 19:01N 33°27' W 117°42'1 1.3
2018-Aug-17 18:30N 33°28' W 117°42'1 2.4
2018-Aug-17 18:00N 33°27' W 117°43'1327.3
2018-Aug-17 17:31N 33°24' W 117°58'1427.2
2018-Aug-17 17:00N 33°22' W 118°15'4 4.8
2018-Aug-17 16:09N 33°21' W 118°19'210.7
2018-Aug-17 15:59N 33°21' W 118°17'1326.5
2018-Aug-17 15:31N 33°23' W 118°02'1326.1
2018-Aug-17 15:01N 33°26' W 117°47'5 9.8
2018-Aug-17 14:31N 33°28' W 117°42'0 0.1
2018-Aug-17 13:30N 33°28' W 117°41'0 0.0
2018-Aug-17 02:10N 33°28' W 117°42'0 0.7
2018-Aug-17 02:00N 33°27' W 117°42'1123.0
2018-Aug-17 01:30N 33°24' W 117°55'1426.9
2018-Aug-17 01:00N 33°22' W 118°11'713.9
2018-Aug-17 00:29N 33°21' W 118°19'1 2.9
2018-Aug-17 00:00N 33°21' W 118°18'1327.0
2018-Aug-16 23:30N 33°23' W 118°02'1326.8
2018-Aug-16 23:01N 33°26' W 117°46'4 8.3
2018-Aug-16 22:30N 33°28' W 117°42'0 0.0
2018-Aug-16 22:01N 33°28' W 117°42'0 0.0
2018-Aug-16 21:30N 33°28' W 117°42'0 0.0
2018-Aug-16 21:00N 33°28' W 117°42'0 0.0
2018-Aug-16 20:30N 33°28' W 117°42'3 6.4
2018-Aug-16 20:01N 33°26' W 117°45'1427.4
2018-Aug-16 19:30N 33°23' W 118°01'1427.2
2018-Aug-16 19:00N 33°21' W 118°17'2 2.1
2018-Aug-16 18:11N 33°21' W 118°19'724.4
2018-Aug-16 17:54N 33°22' W 118°11'1026.1
2018-Aug-16 17:31N 33°24' W 117°59'1326.7
2018-Aug-16 17:00N 33°27' W 117°43'2 3.8
2018-Aug-16 16:31N 33°28' W 117°42'0 0.0
2018-Aug-16 02:14N 33°28' W 117°42'2 6.9
2018-Aug-16 02:00N 33°27' W 117°43'1326.1
2018-Aug-16 01:31N 33°24' W 117°58'1326.3
2018-Aug-16 01:01N 33°22' W 118°14'5 8.9
2018-Aug-16 00:29N 33°21' W 118°19'1 1.0
2018-Aug-16 00:00N 33°21' W 118°20'0 0.2
2018-Aug-15 23:31N 33°21' W 118°20'0 0.0
2018-Aug-15 23:01N 33°21' W 118°20'0 0.0
2018-Aug-15 22:30N 33°21' W 118°20'0 0.1
2018-Aug-15 21:58N 33°21' W 118°20'0 0.1
2018-Aug-15 21:20N 33°21' W 118°20'0 0.0
2018-Aug-15 20:57N 33°21' W 118°20'0 0.0
2018-Aug-15 20:28N 33°21' W 118°20'0 0.0
2018-Aug-15 19:52N 33°21' W 118°20'1 1.0
2018-Aug-15 19:14N 33°21' W 118°19'621.9
2018-Aug-15 18:59N 33°26' W 118°17'1226.0
2018-Aug-15 18:30N 33°38' W 118°13'816.2
2018-Aug-15 18:00N 33°46' W 118°12'0 0.0
2018-Aug-15 17:30N 33°46' W 118°12'0 0.0
2018-Aug-15 17:00N 33°46' W 118°12'0 0.0
2018-Aug-15 16:30N 33°46' W 118°12'0 0.0
2018-Aug-15 16:00N 33°46' W 118°12'0 0.0
2018-Aug-15 15:30N 33°46' W 118°12'0 0.0
2018-Aug-15 15:00N 33°46' W 118°12'0 0.0
2018-Aug-15 14:30N 33°46' W 118°12'0 0.0
2018-Aug-15 02:06N 33°46' W 118°12'0 0.0
2018-Aug-15 02:00N 33°46' W 118°12'0 0.0
2018-Aug-15 01:30N 33°46' W 118°12'2 3.6
2018-Aug-15 01:01N 33°44' W 118°11'1326.8
2018-Aug-15 00:30N 33°32' W 118°16'1121.4
2018-Aug-14 23:59N 33°21' W 118°19'0 0.0
2018-Aug-14 23:31N 33°21' W 118°19'2 4.3
2018-Aug-14 23:00N 33°19' W 118°18'3 5.8
2018-Aug-14 22:30N 33°21' W 118°20'0 0.1
2018-Aug-14 21:59N 33°21' W 118°20'0 0.0
2018-Aug-14 21:30N 33°21' W 118°20'0 0.1
2018-Aug-14 21:01N 33°21' W 118°20'0 0.1
2018-Aug-14 20:30N 33°21' W 118°20'1 1.4
2018-Aug-14 20:01N 33°21' W 118°19'4 7.9
2018-Aug-14 19:30N 33°24' W 118°18'1326.4
2018-Aug-14 19:00N 33°37' W 118°13'917.6
2018-Aug-14 18:31N 33°46' W 118°12'0 0.1
2018-Aug-14 18:01N 33°46' W 118°12'0 0.0
2018-Aug-14 17:30N 33°46' W 118°12'0 0.0
2018-Aug-14 05:40N 33°46' W 118°12'0 0.0
2018-Aug-14 05:30N 33°46' W 118°12'0 0.0
2018-Aug-14 05:00N 33°46' W 118°12'715.1
2018-Aug-14 04:31N 33°38' W 118°12'1326.6
2018-Aug-14 04:01N 33°26' W 118°17'510.7
2018-Aug-14 03:30N 33°21' W 118°19'4 8.8
2018-Aug-14 03:01N 33°25' W 118°18'1326.4
2018-Aug-14 02:30N 33°38' W 118°13'816.6
2018-Aug-14 02:00N 33°46' W 118°12'0 0.0
2018-Aug-14 01:30N 33°46' W 118°12'1 2.7
2018-Aug-14 01:01N 33°45' W 118°11'1326.1
2018-Aug-14 00:30N 33°32' W 118°14'1224.6
2018-Aug-14 00:00N 33°21' W 118°19'0 0.1
2018-Aug-13 23:30N 33°21' W 118°19'1019.6
2018-Aug-13 23:01N 33°30' W 118°17'1326.7
2018-Aug-13 22:31N 33°43' W 118°11'3 6.0
2018-Aug-13 22:00N 33°46' W 118°12'0 0.0
2018-Aug-13 21:30N 33°46' W 118°12'0 0.0
2018-Aug-13 18:13N 33°46' W 118°12'0 0.0
2018-Aug-13 18:01N 33°46' W 118°12'0 0.0
2018-Aug-13 17:30N 33°46' W 118°12'0 0.0
2018-Aug-13 17:00N 33°46' W 118°12'0 0.0
2018-Aug-13 16:30N 33°46' W 118°12'0 0.0
2018-Aug-13 16:00N 33°46' W 118°12'0 0.0
2018-Aug-13 15:30N 33°46' W 118°12'0 0.0
2018-Aug-13 15:01N 33°46' W 118°12'0 0.0
2018-Aug-13 05:09N 33°46' W 118°12'0 0.1
2018-Aug-13 05:01N 33°46' W 118°12'714.9
2018-Aug-13 04:30N 33°38' W 118°12'1326.6
2018-Aug-13 04:01N 33°26' W 118°17'510.8
2018-Aug-13 03:31N 33°21' W 118°19'2 3.4
2018-Aug-13 03:00N 33°22' W 118°19'1427.4
2018-Aug-13 02:31N 33°35' W 118°14'1120.8
2018-Aug-13 02:00N 33°46' W 118°12'0 0.1
2018-Aug-13 01:30N 33°46' W 118°12'1 1.8
2018-Aug-13 01:01N 33°45' W 118°11'1326.1
2018-Aug-13 00:31N 33°32' W 118°14'1224.7
2018-Aug-13 00:00N 33°21' W 118°19'0 0.0
2018-Aug-12 23:28N 33°21' W 118°19'1124.0
2018-Aug-12 23:00N 33°31' W 118°16'1326.8
2018-Aug-12 22:30N 33°44' W 118°11'2 4.0
2018-Aug-12 22:00N 33°46' W 118°12'0 0.0
2018-Aug-12 21:30N 33°46' W 118°12'1 2.0
2018-Aug-12 21:00N 33°45' W 118°11'1326.7
2018-Aug-12 20:31N 33°32' W 118°15'1224.3
2018-Aug-12 20:00N 33°21' W 118°19'0 0.0
2018-Aug-12 19:30N 33°21' W 118°19'5 9.9
2018-Aug-12 19:00N 33°25' W 118°18'1326.8
2018-Aug-12 18:31N 33°38' W 118°13'815.0
2018-Aug-12 18:01N 33°46' W 118°12'0 0.0
2018-Aug-12 17:30N 33°46' W 118°12'1 1.1
2018-Aug-12 17:00N 33°45' W 118°11'1325.0
2018-Aug-12 16:31N 33°33' W 118°14'1326.2
2018-Aug-12 16:00N 33°21' W 118°19'0 0.1
2018-Aug-12 15:30N 33°21' W 118°19'1120.3
2018-Aug-12 14:59N 33°31' W 118°16'1326.7
2018-Aug-12 14:30N 33°43' W 118°11'3 5.7
2018-Aug-12 14:00N 33°46' W 118°12'0 0.0
2018-Aug-12 13:30N 33°46' W 118°12'0 0.0
2018-Aug-12 13:00N 33°46' W 118°12'0 0.0
2018-Aug-12 12:30N 33°46' W 118°12'0 0.0
2018-Aug-12 05:03N 33°46' W 118°12'0 0.2
2018-Aug-12 05:00N 33°46' W 118°12'816.6
2018-Aug-12 04:30N 33°37' W 118°12'1326.3
2018-Aug-12 04:00N 33°25' W 118°18'4 8.4
2018-Aug-12 03:28N 33°21' W 118°19'5 9.5
2018-Aug-12 03:00N 33°25' W 118°18'1326.9
2018-Aug-12 02:30N 33°38' W 118°13'816.3
2018-Aug-12 02:00N 33°46' W 118°12'0 0.0
2018-Aug-12 01:30N 33°46' W 118°12'1 2.9
2018-Aug-12 01:01N 33°45' W 118°11'1325.6
2018-Aug-12 00:30N 33°32' W 118°14'1211.3
2018-Aug-11 23:26N 33°21' W 118°19'1023.6
2018-Aug-11 23:01N 33°30' W 118°15'1325.9
2018-Aug-11 22:30N 33°43' W 118°11'3 6.0
2018-Aug-11 22:00N 33°46' W 118°12'0 0.0
2018-Aug-11 21:30N 33°46' W 118°12'1 2.8
2018-Aug-11 21:01N 33°45' W 118°11'1325.0
2018-Aug-11 20:30N 33°32' W 118°13'1325.4
2018-Aug-11 20:01N 33°21' W 118°19'0 0.0
2018-Aug-11 19:30N 33°21' W 118°19'510.7
2018-Aug-11 19:00N 33°26' W 118°17'1326.1
2018-Aug-11 18:30N 33°38' W 118°13'815.1
2018-Aug-11 18:00N 33°46' W 118°12'0 0.0
2018-Aug-11 17:31N 33°46' W 118°12'1 2.2
2018-Aug-11 17:00N 33°45' W 118°11'1225.0
2018-Aug-11 16:31N 33°33' W 118°13'1325.9
2018-Aug-11 16:01N 33°21' W 118°19'0 0.1
2018-Aug-11 15:30N 33°21' W 118°19'1121.4
2018-Aug-11 15:00N 33°31' W 118°15'1326.6
2018-Aug-11 14:31N 33°44' W 118°11'2 4.6
2018-Aug-11 14:00N 33°46' W 118°12'0 0.0
2018-Aug-11 13:30N 33°46' W 118°12'0 0.0
2018-Aug-11 13:00N 33°46' W 118°12'0 0.0
2018-Aug-11 12:30N 33°46' W 118°12'0 0.0
2018-Aug-11 12:00N 33°46' W 118°12'0 0.0
2018-Aug-10 23:13N 33°46' W 118°12'0 0.0
2018-Aug-10 23:00N 33°46' W 118°12'0 0.0
2018-Aug-10 22:30N 33°46' W 118°12'0 0.0
2018-Aug-10 22:00N 33°46' W 118°12'0 0.0
2018-Aug-10 21:30N 33°46' W 118°12'1 1.5
2018-Aug-10 21:00N 33°45' W 118°11'1326.0
2018-Aug-10 20:31N 33°33' W 118°14'1325.0
2018-Aug-10 20:00N 33°21' W 118°19'0 0.0
2018-Aug-10 19:30N 33°21' W 118°19'3 6.7
2018-Aug-10 19:01N 33°24' W 118°18'1427.3
2018-Aug-10 18:31N 33°37' W 118°13'918.0
2018-Aug-10 18:01N 33°46' W 118°12'0 0.0
2018-Aug-10 17:30N 33°46' W 118°12'1 1.4
2018-Aug-10 17:00N 33°45' W 118°11'1325.8
2018-Aug-10 16:31N 33°33' W 118°14'1325.0
2018-Aug-10 16:00N 33°21' W 118°19'0 0.1
2018-Aug-10 15:30N 33°21' W 118°19'1122.3
2018-Aug-10 15:01N 33°31' W 118°15'1326.6
2018-Aug-10 14:30N 33°44' W 118°11'2 3.9
2018-Aug-10 14:01N 33°46' W 118°12'0 0.0
2018-Aug-10 13:31N 33°46' W 118°12'0 0.0
2018-Aug-10 13:00N 33°46' W 118°12'0 0.0
2018-Aug-10 12:31N 33°46' W 118°12'0 0.0
2018-Aug-10 12:01N 33°46' W 118°12'0 0.0
2018-Aug-09 18:05N 33°46' W 118°12'0 0.0
2018-Aug-09 18:00N 33°46' W 118°12'0 0.0
2018-Aug-09 17:30N 33°46' W 118°12'  

Dump ship's entire track history